Ninaview, Colorado
Current Conditions -  °F | °C
As of 11:53 AM on Thursday 30 Oct 2014 (Local Time) from KLHX Reporting Station
Clear Clear  
Wind Chill: 62°   Ceiling: Unl
Heat Index: 62°   Visibility: 10mi
Dew Point: 26°   Wind: 0mph
Humidity: 25%   Direction: NA
Pressure: 30.37"   Gusts: NA
Location:  37.8567°N, 103.111°W
Report Text: KLHX 301753Z AUTO 00000KT 10SM CLR 17/M03 A3037 RMK AO2 SLP259 T01671033 10172 20028 50002
Loading
Personal Weather Stations






























Interactive Weather Map
Tropical Storm Tracking
New forecast layout! Learn more

10-Day Weather Forecast

Advertisements
Track Severe Weather on mobile